Time;durP1;ratioP1;P1;durP2;ratioP2;P2;SDS_P1;SDS_P2;PMS_P1;PMS_P2;Temp;Humidity;BMP_temperature;BMP_pressure;BME280_temperature;BME280_humidity;BME280_pressure;Samples;Min_cycle;Max_cycle;Signal;HPM_P1;HPM_P2
2021/06/11 00:00:47;;;;;;;8.2;7.4;;;;;;;22.3;46.4;101760;;;;
2021/06/11 00:04:47;;;;;;;8.2;7.4;;;;;;;22.2;47.3;101760;;;;
2021/06/11 00:06:47;;;;;;;8.2;7.4;;;;;;;22.3;46.3;101760;;;;
2021/06/11 00:10:47;;;;;;;8.2;7.4;;;;;;;22.2;47.3;101770;;;;
2021/06/11 00:14:47;;;;;;;8.2;7.4;;;;;;;22.1;46.9;101770;;;;
2021/06/11 00:16:47;;;;;;;8.3;7.5;;;;;;;22.2;46.6;101770;;;;
2021/06/11 00:18:47;;;;;;;8.3;7.5;;;;;;;22.1;46.8;101770;;;;
2021/06/11 00:22:47;;;;;;;8.3;7.5;;;;;;;22.0;48.6;101770;;;;
2021/06/11 00:28:47;;;;;;;8.3;7.5;;;;;;;21.9;48.3;101760;;;;
2021/06/11 00:34:47;;;;;;;8.3;7.5;;;;;;;21.8;47.8;101770;;;;
2021/06/11 00:36:47;;;;;;;9.9;9.0;;;;;;;21.9;48.0;101770;;;;
2021/06/11 00:38:47;;;;;;;9.9;9.0;;;;;;;21.8;49.1;101770;;;;
2021/06/11 00:42:47;;;;;;;9.9;9.0;;;;;;;21.7;47.9;101760;;;;
2021/06/11 00:52:47;;;;;;;9.9;9.0;;;;;;;21.6;49.8;101770;;;;
2021/06/11 01:02:47;;;;;;;15.2;13.9;;;;;;;21.5;48.9;101760;;;;
2021/06/11 01:10:47;;;;;;;15.2;13.9;;;;;;;21.4;48.2;101760;;;;
2021/06/11 01:16:47;;;;;;;16.3;14.6;;;;;;;21.5;48.1;101760;;;;
2021/06/11 01:18:47;;;;;;;16.3;14.6;;;;;;;21.4;48.7;101760;;;;
2021/06/11 01:22:47;;;;;;;16.3;14.6;;;;;;;21.3;48.1;101760;;;;
2021/06/11 01:24:47;;;;;;;16.3;14.6;;;;;;;21.2;49.7;101760;;;;
2021/06/11 01:32:47;;;;;;;16.3;14.6;;;;;;;21.1;48.2;101750;;;;
2021/06/11 01:42:47;;;;;;;17.5;15.8;;;;;;;21.0;51.0;101750;;;;
2021/06/11 01:44:47;;;;;;;17.5;15.8;;;;;;;20.9;52.2;101760;;;;
2021/06/11 01:46:47;;;;;;;17.5;15.8;;;;;;;21.0;51.3;101760;;;;
2021/06/11 01:48:47;;;;;;;17.5;15.8;;;;;;;20.8;53.1;101760;;;;
2021/06/11 01:50:47;;;;;;;17.5;15.8;;;;;;;20.7;53.8;101760;;;;
2021/06/11 01:58:47;;;;;;;18.3;16.6;;;;;;;20.6;54.4;101760;;;;
2021/06/11 02:00:47;;;;;;;18.3;16.6;;;;;;;20.5;55.6;101760;;;;
2021/06/11 02:04:47;;;;;;;18.3;16.6;;;;;;;20.4;54.3;101760;;;;
2021/06/11 02:10:47;;;;;;;18.3;16.6;;;;;;;20.5;52.7;101750;;;;
2021/06/11 02:12:48;;;;;;;18.3;16.6;;;;;;;20.3;55.1;101750;;;;
2021/06/11 02:14:47;;;;;;;18.3;16.6;;;;;;;20.4;52.9;101750;;;;
2021/06/11 02:16:47;;;;;;;15.9;14.5;;;;;;;20.5;53.9;101750;;;;
2021/06/11 02:18:47;;;;;;;15.9;14.5;;;;;;;20.2;54.7;101750;;;;
2021/06/11 02:20:47;;;;;;;15.9;14.5;;;;;;;20.3;53.4;101750;;;;
2021/06/11 02:24:47;;;;;;;15.9;14.5;;;;;;;20.2;55.4;101750;;;;
2021/06/11 02:32:47;;;;;;;15.9;14.5;;;;;;;20.0;54.5;101750;;;;
2021/06/11 02:34:47;;;;;;;15.9;14.5;;;;;;;20.1;54.1;101740;;;;
2021/06/11 02:36:47;;;;;;;15.9;14.4;;;;;;;20.2;52.2;101740;;;;
2021/06/11 02:38:47;;;;;;;15.9;14.4;;;;;;;19.9;56.0;101740;;;;
2021/06/11 02:40:47;;;;;;;15.9;14.4;;;;;;;20.0;53.0;101740;;;;
2021/06/11 02:44:47;;;;;;;15.9;14.4;;;;;;;19.9;56.0;101740;;;;
2021/06/11 02:48:47;;;;;;;15.9;14.4;;;;;;;19.8;56.1;101750;;;;
2021/06/11 02:52:47;;;;;;;15.9;14.4;;;;;;;19.7;55.5;101740;;;;
2021/06/11 02:54:47;;;;;;;15.9;14.4;;;;;;;19.8;54.5;101740;;;;
2021/06/11 02:58:47;;;;;;;13.0;11.7;;;;;;;19.7;54.6;101740;;;;
2021/06/11 03:06:47;;;;;;;13.0;11.7;;;;;;;19.6;56.5;101740;;;;
2021/06/11 03:08:47;;;;;;;13.0;11.7;;;;;;;19.5;56.9;101740;;;;
2021/06/11 03:10:49;;;;;;;13.0;11.7;;;;;;;19.6;54.6;101730;;;;
2021/06/11 03:12:47;;;;;;;13.0;11.7;;;;;;;19.5;53.3;101730;;;;
2021/06/11 03:14:47;;;;;;;13.0;11.7;;;;;;;19.6;54.2;101730;;;;
2021/06/11 03:22:47;;;;;;;12.7;11.4;;;;;;;19.5;53.1;101720;;;;
2021/06/11 03:26:47;;;;;;;12.7;11.4;;;;;;;19.4;54.6;101710;;;;
2021/06/11 03:32:47;;;;;;;12.7;11.4;;;;;;;19.5;53.5;101710;;;;
2021/06/11 03:38:48;;;;;;;11.7;10.7;;;;;;;19.4;53.6;101700;;;;
2021/06/11 03:40:47;;;;;;;11.7;10.7;;;;;;;19.3;54.7;101700;;;;
2021/06/11 03:44:47;;;;;;;11.7;10.7;;;;;;;19.2;55.2;101710;;;;
2021/06/11 03:46:47;;;;;;;11.7;10.7;;;;;;;19.3;54.5;101700;;;;
2021/06/11 03:54:47;;;;;;;11.7;10.7;;;;;;;19.4;53.8;101700;;;;
2021/06/11 03:56:48;;;;;;;11.3;10.2;;;;;;;19.3;53.3;101700;;;;
2021/06/11 04:00:48;;;;;;;11.3;10.2;;;;;;;19.2;55.6;101700;;;;
2021/06/11 04:02:48;;;;;;;11.3;10.2;;;;;;;19.1;55.9;101700;;;;
2021/06/11 04:04:48;;;;;;;11.3;10.2;;;;;;;18.9;56.7;101690;;;;
2021/06/11 04:06:48;;;;;;;11.3;10.2;;;;;;;19.1;57.3;101690;;;;
2021/06/11 04:08:48;;;;;;;11.3;10.2;;;;;;;19.0;57.8;101700;;;;
2021/06/11 04:10:47;;;;;;;11.3;10.2;;;;;;;18.9;58.2;101700;;;;
2021/06/11 04:12:47;;;;;;;11.3;10.2;;;;;;;19.0;55.7;101700;;;;
2021/06/11 04:14:47;;;;;;;11.3;10.2;;;;;;;19.2;55.4;101700;;;;
2021/06/11 04:16:47;;;;;;;11.3;10.2;;;;;;;19.1;56.9;101700;;;;
2021/06/11 04:22:47;;;;;;;11.3;10.2;;;;;;;19.0;56.8;101700;;;;
2021/06/11 04:24:47;;;;;;;11.3;10.2;;;;;;;19.1;56.4;101700;;;;
2021/06/11 04:30:47;;;;;;;11.3;10.2;;;;;;;19.0;56.9;101710;;;;
2021/06/11 04:34:48;;;;;;;11.3;10.2;;;;;;;19.2;56.8;101720;;;;
2021/06/11 04:36:47;;;;;;;12.3;11.0;;;;;;;19.1;57.5;101720;;;;
2021/06/11 04:44:47;;;;;;;12.3;11.0;;;;;;;19.0;59.2;101740;;;;
2021/06/11 04:46:48;;;;;;;12.3;11.0;;;;;;;18.9;58.6;101740;;;;
2021/06/11 04:50:47;;;;;;;12.3;11.0;;;;;;;19.0;57.8;101740;;;;
2021/06/11 04:54:47;;;;;;;12.3;11.0;;;;;;;19.2;58.4;101740;;;;
2021/06/11 05:00:48;;;;;;;13.1;11.8;;;;;;;19.4;58.5;101740;;;;
2021/06/11 05:02:47;;;;;;;13.1;11.8;;;;;;;19.3;58.4;101740;;;;
2021/06/11 05:04:47;;;;;;;13.1;11.8;;;;;;;19.4;57.9;101740;;;;
2021/06/11 05:06:47;;;;;;;13.1;11.8;;;;;;;19.3;59.5;101740;;;;
2021/06/11 05:10:47;;;;;;;13.1;11.8;;;;;;;19.4;58.0;101740;;;;
2021/06/11 05:12:47;;;;;;;13.1;11.8;;;;;;;19.5;58.9;101750;;;;
2021/06/11 05:14:47;;;;;;;13.1;11.8;;;;;;;19.6;57.5;101750;;;;
2021/06/11 05:16:47;;;;;;;12.9;11.6;;;;;;;19.5;58.6;101750;;;;
2021/06/11 05:18:47;;;;;;;12.9;11.6;;;;;;;19.6;59.1;101760;;;;
2021/06/11 05:20:47;;;;;;;12.9;11.6;;;;;;;19.4;60.4;101750;;;;
2021/06/11 05:26:47;;;;;;;12.9;11.6;;;;;;;19.6;59.3;101750;;;;
2021/06/11 05:28:47;;;;;;;12.9;11.6;;;;;;;19.7;59.4;101750;;;;
2021/06/11 05:30:47;;;;;;;12.9;11.6;;;;;;;19.4;59.3;101750;;;;
2021/06/11 05:32:48;;;;;;;12.9;11.6;;;;;;;19.7;57.9;101750;;;;
2021/06/11 05:34:47;;;;;;;12.9;11.6;;;;;;;19.9;57.7;101750;;;;
2021/06/11 05:36:47;;;;;;;13.7;11.1;;;;;;;19.8;59.0;101760;;;;
2021/06/11 05:38:47;;;;;;;13.7;11.1;;;;;;;19.5;60.6;101760;;;;
2021/06/11 05:40:47;;;;;;;13.7;11.1;;;;;;;19.6;59.3;101760;;;;
2021/06/11 05:42:49;;;;;;;13.7;11.1;;;;;;;19.8;59.7;101770;;;;
2021/06/11 05:44:47;;;;;;;13.7;11.1;;;;;;;19.7;59.5;101770;;;;
2021/06/11 05:50:47;;;;;;;13.7;11.1;;;;;;;19.8;59.9;101770;;;;
2021/06/11 05:52:47;;;;;;;13.7;11.1;;;;;;;19.9;58.6;101770;;;;
2021/06/11 05:54:47;;;;;;;13.3;11.6;;;;;;;20.0;58.9;101770;;;;
2021/06/11 05:56:48;;;;;;;13.3;11.6;;;;;;;19.9;59.0;101770;;;;
2021/06/11 05:58:47;;;;;;;13.3;11.6;;;;;;;19.7;58.6;101770;;;;
2021/06/11 06:00:47;;;;;;;13.3;11.6;;;;;;;19.8;57.8;101760;;;;
2021/06/11 06:02:47;;;;;;;13.3;11.6;;;;;;;19.9;59.7;101760;;;;
2021/06/11 06:04:47;;;;;;;13.3;11.6;;;;;;;19.8;59.0;101770;;;;
2021/06/11 06:06:47;;;;;;;13.3;11.6;;;;;;;19.9;59.9;101770;;;;
2021/06/11 06:08:47;;;;;;;13.3;11.6;;;;;;;19.8;60.5;101760;;;;
2021/06/11 06:14:47;;;;;;;13.7;11.5;;;;;;;19.9;60.2;101760;;;;
2021/06/11 06:16:47;;;;;;;13.7;11.5;;;;;;;20.0;59.5;101760;;;;
2021/06/11 06:18:47;;;;;;;13.7;11.5;;;;;;;20.1;59.5;101760;;;;
2021/06/11 06:20:47;;;;;;;13.7;11.5;;;;;;;20.0;59.8;101760;;;;
2021/06/11 06:22:48;;;;;;;13.7;11.5;;;;;;;20.2;58.4;101760;;;;
2021/06/11 06:24:47;;;;;;;13.7;11.5;;;;;;;20.3;58.7;101760;;;;
2021/06/11 06:26:47;;;;;;;13.7;11.5;;;;;;;20.5;58.5;101750;;;;
2021/06/11 06:28:47;;;;;;;13.7;11.5;;;;;;;20.4;58.8;101760;;;;
2021/06/11 06:32:48;;;;;;;13.7;11.5;;;;;;;20.5;56.7;101760;;;;
2021/06/11 06:34:47;;;;;;;14.1;12.1;;;;;;;20.6;57.7;101760;;;;
2021/06/11 06:36:57;;;;;;;14.1;12.1;;;;;;;20.7;57.9;101760;;;;
2021/06/11 06:40:55;;;;;;;14.1;12.1;;;;;;;20.8;57.3;101760;;;;
2021/06/11 06:42:47;;;;;;;14.1;12.1;;;;;;;20.9;55.9;101770;;;;
2021/06/11 06:44:47;;;;;;;14.1;12.1;;;;;;;21.0;56.2;101770;;;;
2021/06/11 06:46:48;;;;;;;14.1;12.1;;;;;;;20.9;57.1;101770;;;;
2021/06/11 06:48:47;;;;;;;14.1;12.1;;;;;;;21.0;56.9;101770;;;;
2021/06/11 06:50:48;;;;;;;14.1;12.1;;;;;;;20.8;56.5;101770;;;;
2021/06/11 06:52:52;;;;;;;14.1;12.1;;;;;;;21.0;55.7;101770;;;;
2021/06/11 07:04:47;;;;;;;16.9;13.6;;;;;;;21.2;55.3;101770;;;;
2021/06/11 07:10:47;;;;;;;16.9;13.6;;;;;;;21.3;57.3;101760;;;;
2021/06/11 07:12:47;;;;;;;16.9;13.6;;;;;;;21.4;56.2;101770;;;;
2021/06/11 07:14:48;;;;;;;18.0;13.7;;;;;;;21.5;56.3;101760;;;;
2021/06/11 07:22:47;;;;;;;18.0;13.7;;;;;;;21.6;55.0;101770;;;;
2021/06/11 07:30:47;;;;;;;18.0;13.7;;;;;;;21.8;55.4;101770;;;;
2021/06/11 07:36:47;;;;;;;16.3;14.3;;;;;;;21.9;55.3;101770;;;;
2021/06/11 07:38:47;;;;;;;16.3;14.3;;;;;;;22.0;55.0;101780;;;;
2021/06/11 07:40:51;;;;;;;16.3;14.3;;;;;;;21.8;54.6;101780;;;;
2021/06/11 07:42:47;;;;;;;16.3;14.3;;;;;;;22.0;55.2;101780;;;;
2021/06/11 07:44:47;;;;;;;16.3;14.3;;;;;;;22.1;55.1;101780;;;;
2021/06/11 07:46:47;;;;;;;16.3;14.3;;;;;;;22.2;54.4;101780;;;;
2021/06/11 07:48:48;;;;;;;16.3;14.3;;;;;;;22.1;54.6;101770;;;;
2021/06/11 07:50:47;;;;;;;16.3;14.3;;;;;;;22.2;55.2;101780;;;;
2021/06/11 07:52:48;;;;;;;16.3;14.3;;;;;;;22.4;54.8;101780;;;;
2021/06/11 07:56:47;;;;;;;13.6;11.6;;;;;;;22.3;53.9;101780;;;;
2021/06/11 07:58:47;;;;;;;13.6;11.6;;;;;;;22.5;53.7;101780;;;;
2021/06/11 08:00:48;;;;;;;13.6;11.6;;;;;;;22.6;53.4;101780;;;;
2021/06/11 08:02:47;;;;;;;13.6;11.6;;;;;;;22.8;52.7;101780;;;;
2021/06/11 08:04:48;;;;;;;13.6;11.6;;;;;;;22.9;53.0;101780;;;;
2021/06/11 08:08:48;;;;;;;13.6;11.6;;;;;;;23.0;52.0;101780;;;;
2021/06/11 08:12:48;;;;;;;13.6;11.6;;;;;;;23.1;52.2;101770;;;;
2021/06/11 08:14:48;;;;;;;11.5;10.3;;;;;;;23.0;51.6;101770;;;;
2021/06/11 08:20:47;;;;;;;11.5;10.3;;;;;;;23.1;52.1;101770;;;;
2021/06/11 08:22:47;;;;;;;11.5;10.3;;;;;;;23.2;51.4;101770;;;;
2021/06/11 08:24:47;;;;;;;11.5;10.3;;;;;;;23.3;51.2;101770;;;;
2021/06/11 08:26:47;;;;;;;11.5;10.3;;;;;;;23.1;51.6;101770;;;;
2021/06/11 08:28:47;;;;;;;11.5;10.3;;;;;;;23.2;51.0;101770;;;;
2021/06/11 08:30:47;;;;;;;11.5;10.3;;;;;;;23.0;51.7;101780;;;;
2021/06/11 08:32:48;;;;;;;11.5;10.3;;;;;;;23.3;52.1;101770;;;;
2021/06/11 08:34:47;;;;;;;10.9;8.4;;;;;;;23.4;51.4;101770;;;;
2021/06/11 08:36:47;;;;;;;10.9;8.4;;;;;;;23.6;51.4;101770;;;;
2021/06/11 08:38:47;;;;;;;10.9;8.4;;;;;;;23.7;51.3;101780;;;;
2021/06/11 08:40:47;;;;;;;10.9;8.4;;;;;;;23.9;50.6;101770;;;;
2021/06/11 08:42:48;;;;;;;10.9;8.4;;;;;;;23.6;50.8;101780;;;;
2021/06/11 08:44:47;;;;;;;10.9;8.4;;;;;;;23.8;50.5;101780;;;;
2021/06/11 08:48:47;;;;;;;10.9;8.4;;;;;;;23.9;50.0;101780;;;;
2021/06/11 08:50:47;;;;;;;10.9;8.4;;;;;;;24.0;49.4;101780;;;;
2021/06/11 08:54:47;;;;;;;9.0;7.9;;;;;;;24.1;49.7;101770;;;;
2021/06/11 09:00:47;;;;;;;9.0;7.9;;;;;;;24.2;50.1;101770;;;;
2021/06/11 09:02:47;;;;;;;9.0;7.9;;;;;;;24.3;49.5;101770;;;;
2021/06/11 09:04:47;;;;;;;9.0;7.9;;;;;;;24.4;49.5;101780;;;;
2021/06/11 09:06:47;;;;;;;9.0;7.9;;;;;;;24.6;49.4;101770;;;;
2021/06/11 09:08:47;;;;;;;9.0;7.9;;;;;;;24.8;48.9;101770;;;;
2021/06/11 09:10:47;;;;;;;9.0;7.9;;;;;;;24.6;48.1;101770;;;;
2021/06/11 09:12:47;;;;;;;9.0;7.9;;;;;;;24.5;48.5;101770;;;;
2021/06/11 09:14:47;;;;;;;7.4;6.7;;;;;;;24.6;48.3;101770;;;;
2021/06/11 09:16:47;;;;;;;7.4;6.7;;;;;;;24.9;47.8;101760;;;;
2021/06/11 09:18:47;;;;;;;7.4;6.7;;;;;;;24.8;47.6;101770;;;;
2021/06/11 09:22:47;;;;;;;7.4;6.7;;;;;;;24.9;48.2;101760;;;;
2021/06/11 09:26:47;;;;;;;7.4;6.7;;;;;;;25.1;47.6;101760;;;;
2021/06/11 09:28:47;;;;;;;7.4;6.7;;;;;;;25.2;47.3;101760;;;;
2021/06/11 09:30:47;;;;;;;7.4;6.7;;;;;;;25.3;47.4;101760;;;;
2021/06/11 09:32:47;;;;;;;7.4;6.7;;;;;;;25.0;47.2;101760;;;;
2021/06/11 09:34:47;;;;;;;7.0;6.3;;;;;;;25.2;47.4;101760;;;;
2021/06/11 09:38:47;;;;;;;7.0;6.3;;;;;;;25.1;47.3;101760;;;;
2021/06/11 09:40:47;;;;;;;7.0;6.3;;;;;;;25.2;47.4;101760;;;;
2021/06/11 09:42:57;;;;;;;7.0;6.3;;;;;;;25.3;46.3;101760;;;;
2021/06/11 09:44:47;;;;;;;7.0;6.3;;;;;;;25.5;46.0;101750;;;;
2021/06/11 09:46:47;;;;;;;7.0;6.3;;;;;;;25.6;47.2;101750;;;;
2021/06/11 09:48:49;;;;;;;7.0;6.3;;;;;;;25.7;46.5;101750;;;;
2021/06/11 09:50:50;;;;;;;7.0;6.3;;;;;;;25.6;46.1;101760;;;;
2021/06/11 09:52:47;;;;;;;7.0;6.3;;;;;;;25.7;45.9;101760;;;;
2021/06/11 09:54:47;;;;;;;8.4;7.7;;;;;;;26.0;45.0;101750;;;;
2021/06/11 09:56:47;;;;;;;8.4;7.7;;;;;;;25.9;46.9;101750;;;;
2021/06/11 09:58:47;;;;;;;8.4;7.7;;;;;;;26.0;46.7;101750;;;;
2021/06/11 10:02:48;;;;;;;8.4;7.7;;;;;;;26.1;45.0;101750;;;;
2021/06/11 10:08:47;;;;;;;8.4;7.7;;;;;;;26.0;45.9;101750;;;;
2021/06/11 10:10:47;;;;;;;8.4;7.7;;;;;;;26.1;46.4;101750;;;;
2021/06/11 10:14:47;;;;;;;9.5;8.3;;;;;;;25.8;44.6;101740;;;;
2021/06/11 10:16:47;;;;;;;9.5;8.3;;;;;;;25.9;45.5;101740;;;;
2021/06/11 10:18:47;;;;;;;9.5;8.3;;;;;;;26.0;45.1;101750;;;;
2021/06/11 10:20:47;;;;;;;9.5;8.3;;;;;;;26.2;45.4;101750;;;;
2021/06/11 10:22:47;;;;;;;9.5;8.3;;;;;;;26.1;44.5;101740;;;;
2021/06/11 10:28:47;;;;;;;9.5;8.3;;;;;;;26.3;45.5;101740;;;;
2021/06/11 10:32:48;;;;;;;9.5;8.3;;;;;;;26.5;44.8;101740;;;;
2021/06/11 10:34:47;;;;;;;8.8;7.9;;;;;;;26.6;44.0;101740;;;;
2021/06/11 10:38:49;;;;;;;8.8;7.9;;;;;;;26.9;44.2;101730;;;;
2021/06/11 10:40:47;;;;;;;8.8;7.9;;;;;;;26.8;44.2;101730;;;;
2021/06/11 10:44:49;;;;;;;8.8;7.9;;;;;;;26.4;43.7;101730;;;;
2021/06/11 10:48:47;;;;;;;8.8;7.9;;;;;;;26.9;43.6;101730;;;;
2021/06/11 10:52:49;;;;;;;8.8;7.9;;;;;;;27.2;44.4;101720;;;;
2021/06/11 10:54:47;;;;;;;12.6;9.9;;;;;;;27.0;42.3;101720;;;;
2021/06/11 10:56:47;;;;;;;12.6;9.9;;;;;;;27.1;43.0;101720;;;;
2021/06/11 10:58:47;;;;;;;12.6;9.9;;;;;;;27.3;43.6;101720;;;;
2021/06/11 11:00:47;;;;;;;12.6;9.9;;;;;;;27.4;42.9;101720;;;;
2021/06/11 11:02:48;;;;;;;12.6;9.9;;;;;;;27.6;41.7;101720;;;;
2021/06/11 11:06:48;;;;;;;12.6;9.9;;;;;;;27.8;41.5;101720;;;;
2021/06/11 11:08:47;;;;;;;12.6;9.9;;;;;;;28.0;43.1;101720;;;;
2021/06/11 11:10:47;;;;;;;12.6;9.9;;;;;;;27.9;41.4;101720;;;;
2021/06/11 11:12:47;;;;;;;12.6;9.9;;;;;;;28.0;40.7;101720;;;;
2021/06/11 11:20:47;;;;;;;10.5;8.0;;;;;;;28.1;42.2;101710;;;;
2021/06/11 11:22:48;;;;;;;10.5;8.0;;;;;;;28.2;40.9;101710;;;;
2021/06/11 11:24:47;;;;;;;10.5;8.0;;;;;;;28.4;41.3;101700;;;;
2021/06/11 11:26:48;;;;;;;10.5;8.0;;;;;;;28.1;40.6;101700;;;;
2021/06/11 11:30:47;;;;;;;10.5;8.0;;;;;;;27.9;39.7;101700;;;;
2021/06/11 11:32:47;;;;;;;10.5;8.0;;;;;;;28.0;39.6;101700;;;;
2021/06/11 11:34:47;;;;;;;9.2;5.9;;;;;;;28.2;40.5;101700;;;;
2021/06/11 11:36:47;;;;;;;9.2;5.9;;;;;;;28.4;39.8;101710;;;;
2021/06/11 11:40:47;;;;;;;9.2;5.9;;;;;;;28.6;38.8;101700;;;;
2021/06/11 11:44:47;;;;;;;9.2;5.9;;;;;;;29.0;38.8;101690;;;;
2021/06/11 11:46:48;;;;;;;9.2;5.9;;;;;;;28.8;36.7;101700;;;;
2021/06/11 11:48:47;;;;;;;9.2;5.9;;;;;;;28.7;40.2;101690;;;;
2021/06/11 11:50:47;;;;;;;9.2;5.9;;;;;;;28.9;39.1;101700;;;;
2021/06/11 11:52:47;;;;;;;9.2;5.9;;;;;;;29.1;36.6;101690;;;;
2021/06/11 11:54:47;;;;;;;9.4;6.7;;;;;;;29.3;38.6;101690;;;;
2021/06/11 11:56:47;;;;;;;9.4;6.7;;;;;;;29.2;40.3;101690;;;;
2021/06/11 11:58:57;;;;;;;9.4;6.7;;;;;;;29.3;37.1;101690;;;;
2021/06/11 12:00:47;;;;;;;9.4;6.7;;;;;;;29.5;36.8;101680;;;;
2021/06/11 12:02:47;;;;;;;9.4;6.7;;;;;;;29.7;37.9;101690;;;;
2021/06/11 12:04:47;;;;;;;9.4;6.7;;;;;;;29.6;36.9;101690;;;;
2021/06/11 12:06:47;;;;;;;9.4;6.7;;;;;;;29.4;36.6;101690;;;;
2021/06/11 12:08:49;;;;;;;9.4;6.7;;;;;;;29.8;37.5;101690;;;;
2021/06/11 12:10:47;;;;;;;9.4;6.7;;;;;;;29.6;37.3;101690;;;;
2021/06/11 12:14:47;;;;;;;7.9;6.3;;;;;;;29.5;36.5;101680;;;;
2021/06/11 12:16:48;;;;;;;7.9;6.3;;;;;;;29.7;36.2;101680;;;;
2021/06/11 12:18:47;;;;;;;7.9;6.3;;;;;;;29.8;35.9;101670;;;;
2021/06/11 12:22:47;;;;;;;7.9;6.3;;;;;;;29.7;35.3;101680;;;;
2021/06/11 12:26:51;;;;;;;7.9;6.3;;;;;;;29.5;35.6;101680;;;;
2021/06/11 12:28:47;;;;;;;7.9;6.3;;;;;;;29.6;37.0;101690;;;;
2021/06/11 12:30:47;;;;;;;7.9;6.3;;;;;;;29.7;36.3;101680;;;;
2021/06/11 12:32:47;;;;;;;7.9;6.3;;;;;;;29.5;35.7;101680;;;;
2021/06/11 12:34:47;;;;;;;7.6;6.8;;;;;;;29.8;35.9;101680;;;;
2021/06/11 12:36:48;;;;;;;7.6;6.8;;;;;;;29.9;36.9;101680;;;;
2021/06/11 12:38:47;;;;;;;7.6;6.8;;;;;;;30.0;35.9;101680;;;;
2021/06/11 12:40:48;;;;;;;7.6;6.8;;;;;;;29.7;35.9;101680;;;;
2021/06/11 12:42:51;;;;;;;7.6;6.8;;;;;;;30.0;38.4;101680;;;;
2021/06/11 12:48:47;;;;;;;7.6;6.8;;;;;;;29.9;35.7;101670;;;;
2021/06/11 12:50:47;;;;;;;7.6;6.8;;;;;;;30.0;37.1;101670;;;;
2021/06/11 12:52:49;;;;;;;7.6;6.8;;;;;;;29.9;36.1;101670;;;;
2021/06/11 12:54:47;;;;;;;8.8;6.7;;;;;;;30.0;36.9;101680;;;;
2021/06/11 12:56:47;;;;;;;8.8;6.7;;;;;;;30.1;36.1;101670;;;;
2021/06/11 12:58:47;;;;;;;8.8;6.7;;;;;;;30.0;38.5;101670;;;;
2021/06/11 13:00:47;;;;;;;8.8;6.7;;;;;;;30.1;37.4;101670;;;;
2021/06/11 13:02:47;;;;;;;8.8;6.7;;;;;;;30.0;36.6;101670;;;;
2021/06/11 13:04:48;;;;;;;8.8;6.7;;;;;;;30.2;37.7;101680;;;;
2021/06/11 13:06:47;;;;;;;8.8;6.7;;;;;;;30.1;36.4;101670;;;;
2021/06/11 13:08:47;;;;;;;8.8;6.7;;;;;;;30.0;37.0;101670;;;;
2021/06/11 13:12:48;;;;;;;8.8;6.7;;;;;;;30.1;40.0;101670;;;;
2021/06/11 13:14:47;;;;;;;8.1;7.3;;;;;;;30.2;38.3;101670;;;;
2021/06/11 13:16:48;;;;;;;8.1;7.3;;;;;;;30.1;38.0;101670;;;;
2021/06/11 13:18:47;;;;;;;8.1;7.3;;;;;;;30.0;38.9;101670;;;;
2021/06/11 13:20:47;;;;;;;8.1;7.3;;;;;;;30.1;37.7;101670;;;;
2021/06/11 13:24:48;;;;;;;8.1;7.3;;;;;;;30.2;37.7;101660;;;;
2021/06/11 13:26:47;;;;;;;8.1;7.3;;;;;;;30.4;37.7;101660;;;;
2021/06/11 13:30:48;;;;;;;8.1;7.3;;;;;;;30.5;36.8;101660;;;;
2021/06/11 13:32:47;;;;;;;8.1;7.3;;;;;;;30.6;37.7;101650;;;;
2021/06/11 13:34:49;;;;;;;11.6;10.4;;;;;;;30.5;35.9;101660;;;;
2021/06/11 13:42:47;;;;;;;11.6;10.4;;;;;;;30.4;36.5;101650;;;;
2021/06/11 13:46:48;;;;;;;11.6;10.4;;;;;;;30.6;36.7;101650;;;;
2021/06/11 13:48:47;;;;;;;11.6;10.4;;;;;;;30.5;37.2;101650;;;;
2021/06/11 13:50:47;;;;;;;11.6;10.4;;;;;;;30.6;36.9;101650;;;;
2021/06/11 13:52:47;;;;;;;11.6;10.4;;;;;;;30.8;36.6;101650;;;;
2021/06/11 13:54:47;;;;;;;17.6;15.4;;;;;;;30.9;36.8;101640;;;;
2021/06/11 13:56:48;;;;;;;17.6;15.4;;;;;;;31.2;37.5;101650;;;;
2021/06/11 14:00:47;;;;;;;17.6;15.4;;;;;;;31.5;36.4;101650;;;;
2021/06/11 14:04:47;;;;;;;17.6;15.4;;;;;;;31.3;35.5;101660;;;;
2021/06/11 14:06:47;;;;;;;17.6;15.4;;;;;;;31.8;35.9;101650;;;;
2021/06/11 14:08:47;;;;;;;17.6;15.4;;;;;;;32.2;35.4;101650;;;;
2021/06/11 14:10:47;;;;;;;17.6;15.4;;;;;;;32.0;34.9;101650;;;;
2021/06/11 14:12:48;;;;;;;17.6;15.4;;;;;;;31.9;35.5;101650;;;;
2021/06/11 14:14:48;;;;;;;20.3;18.2;;;;;;;32.0;35.3;101650;;;;
2021/06/11 14:16:48;;;;;;;20.3;18.2;;;;;;;31.8;35.3;101650;;;;
2021/06/11 14:18:47;;;;;;;20.3;18.2;;;;;;;31.5;35.9;101650;;;;
2021/06/11 14:20:47;;;;;;;20.3;18.2;;;;;;;31.4;35.3;101650;;;;
2021/06/11 14:24:47;;;;;;;20.3;18.2;;;;;;;31.3;35.5;101650;;;;
2021/06/11 14:26:47;;;;;;;20.3;18.2;;;;;;;31.2;35.8;101650;;;;
2021/06/11 14:28:47;;;;;;;20.3;18.2;;;;;;;31.3;36.3;101640;;;;
2021/06/11 14:30:48;;;;;;;20.3;18.2;;;;;;;31.1;36.2;101650;;;;
2021/06/11 14:32:48;;;;;;;20.3;18.2;;;;;;;31.2;36.8;101640;;;;
2021/06/11 14:34:48;;;;;;;21.5;19.2;;;;;;;31.6;35.8;101650;;;;
2021/06/11 14:36:47;;;;;;;21.5;19.2;;;;;;;31.5;35.6;101650;;;;
2021/06/11 14:38:48;;;;;;;21.5;19.2;;;;;;;31.2;35.8;101650;;;;
2021/06/11 14:40:48;;;;;;;21.5;19.2;;;;;;;30.8;35.7;101640;;;;
2021/06/11 14:42:49;;;;;;;21.5;19.2;;;;;;;30.6;35.8;101640;;;;
2021/06/11 14:44:47;;;;;;;21.5;19.2;;;;;;;30.3;36.3;101640;;;;
2021/06/11 14:46:48;;;;;;;21.5;19.2;;;;;;;30.2;37.1;101640;;;;
2021/06/11 14:48:47;;;;;;;21.5;19.2;;;;;;;30.4;37.2;101630;;;;
2021/06/11 14:50:47;;;;;;;21.5;19.2;;;;;;;30.6;37.4;101630;;;;
2021/06/11 14:52:51;;;;;;;21.5;19.2;;;;;;;31.1;36.6;101630;;;;
2021/06/11 14:54:55;;;;;;;18.0;16.0;;;;;;;31.4;35.7;101630;;;;
2021/06/11 15:00:48;;;;;;;18.0;16.0;;;;;;;31.7;34.3;101630;;;;
2021/06/11 15:02:47;;;;;;;18.0;16.0;;;;;;;31.4;34.4;101630;;;;
2021/06/11 15:04:48;;;;;;;18.0;16.0;;;;;;;31.3;33.8;101630;;;;
2021/06/11 15:08:47;;;;;;;18.0;16.0;;;;;;;31.0;33.9;101630;;;;
2021/06/11 15:10:48;;;;;;;18.0;16.0;;;;;;;31.1;33.9;101630;;;;
2021/06/11 15:12:48;;;;;;;18.0;16.0;;;;;;;31.4;34.0;101630;;;;
2021/06/11 15:14:48;;;;;;;11.9;10.7;;;;;;;31.6;33.3;101630;;;;
2021/06/11 15:16:48;;;;;;;11.9;10.7;;;;;;;31.2;34.2;101630;;;;
2021/06/11 15:18:47;;;;;;;11.9;10.7;;;;;;;31.6;34.3;101630;;;;
2021/06/11 15:20:48;;;;;;;11.9;10.7;;;;;;;31.9;33.3;101620;;;;
2021/06/11 15:22:47;;;;;;;11.9;10.7;;;;;;;32.0;33.8;101620;;;;
2021/06/11 15:24:47;;;;;;;11.9;10.7;;;;;;;32.5;33.3;101620;;;;
2021/06/11 15:26:48;;;;;;;11.9;10.7;;;;;;;32.1;33.6;101620;;;;
2021/06/11 15:28:47;;;;;;;11.9;10.7;;;;;;;32.7;33.1;101620;;;;
2021/06/11 15:30:47;;;;;;;11.9;10.7;;;;;;;32.4;32.7;101620;;;;
2021/06/11 15:32:48;;;;;;;11.9;10.7;;;;;;;32.5;32.7;101620;;;;
2021/06/11 15:34:48;;;;;;;15.9;14.4;;;;;;;32.4;33.2;101620;;;;
2021/06/11 15:36:48;;;;;;;15.9;14.4;;;;;;;32.3;33.2;101630;;;;
2021/06/11 15:38:47;;;;;;;15.9;14.4;;;;;;;32.5;33.0;101630;;;;
2021/06/11 15:40:47;;;;;;;15.9;14.4;;;;;;;32.3;32.8;101630;;;;
2021/06/11 15:42:47;;;;;;;15.9;14.4;;;;;;;32.5;33.0;101620;;;;
2021/06/11 15:46:48;;;;;;;15.9;14.4;;;;;;;32.6;32.3;101620;;;;
2021/06/11 15:48:47;;;;;;;15.9;14.4;;;;;;;33.2;32.1;101620;;;;
2021/06/11 15:50:47;;;;;;;15.9;14.4;;;;;;;33.4;31.6;101620;;;;
2021/06/11 15:54:47;;;;;;;7.9;7.2;;;;;;;33.5;30.5;101620;;;;
2021/06/11 15:56:47;;;;;;;7.9;7.2;;;;;;;33.0;30.7;101620;;;;
2021/06/11 15:58:47;;;;;;;7.9;7.2;;;;;;;33.2;30.7;101620;;;;
2021/06/11 16:00:49;;;;;;;7.9;7.2;;;;;;;33.0;31.1;101620;;;;
2021/06/11 16:02:48;;;;;;;7.9;7.2;;;;;;;32.5;32.1;101620;;;;
2021/06/11 16:04:47;;;;;;;7.9;7.2;;;;;;;32.1;31.8;101620;;;;
2021/06/11 16:06:50;;;;;;;7.9;7.2;;;;;;;32.2;32.3;101620;;;;
2021/06/11 16:08:47;;;;;;;7.9;7.2;;;;;;;32.4;32.1;101620;;;;
2021/06/11 16:10:47;;;;;;;7.9;7.2;;;;;;;32.5;31.5;101610;;;;
2021/06/11 16:12:50;;;;;;;7.9;7.2;;;;;;;32.6;30.8;101610;;;;
2021/06/11 16:18:49;;;;;;;8.3;6.5;;;;;;;33.1;30.7;101610;;;;
2021/06/11 16:20:48;;;;;;;8.3;6.5;;;;;;;33.8;29.9;101610;;;;
2021/06/11 16:22:48;;;;;;;8.3;6.5;;;;;;;33.5;29.5;101610;;;;
2021/06/11 16:24:47;;;;;;;8.3;6.5;;;;;;;33.8;29.8;101610;;;;
2021/06/11 16:28:47;;;;;;;8.3;6.5;;;;;;;34.2;29.4;101610;;;;
2021/06/11 16:30:48;;;;;;;8.3;6.5;;;;;;;34.0;28.9;101610;;;;
2021/06/11 16:32:47;;;;;;;8.3;6.5;;;;;;;34.2;29.2;101600;;;;
2021/06/11 16:36:47;;;;;;;7.8;7.1;;;;;;;34.0;29.3;101600;;;;
2021/06/11 16:38:47;;;;;;;7.8;7.1;;;;;;;34.2;29.5;101600;;;;
2021/06/11 16:40:48;;;;;;;7.8;7.1;;;;;;;33.8;30.0;101600;;;;
2021/06/11 16:42:47;;;;;;;7.8;7.1;;;;;;;34.0;30.0;101600;;;;
2021/06/11 16:44:57;;;;;;;7.8;7.1;;;;;;;33.9;30.0;101600;;;;
2021/06/11 16:46:48;;;;;;;7.8;7.1;;;;;;;34.2;29.7;101600;;;;
2021/06/11 16:48:48;;;;;;;7.8;7.1;;;;;;;34.3;29.0;101590;;;;
2021/06/11 16:50:48;;;;;;;7.8;7.1;;;;;;;34.5;29.4;101600;;;;
2021/06/11 16:54:47;;;;;;;13.4;12.1;;;;;;;34.4;28.9;101600;;;;
2021/06/11 16:56:48;;;;;;;13.4;12.1;;;;;;;34.2;28.6;101600;;;;
2021/06/11 16:58:47;;;;;;;13.4;12.1;;;;;;;33.9;29.4;101600;;;;
2021/06/11 17:00:48;;;;;;;13.4;12.1;;;;;;;34.3;29.5;101600;;;;
2021/06/11 17:02:48;;;;;;;13.4;12.1;;;;;;;33.7;29.3;101600;;;;
2021/06/11 17:04:47;;;;;;;13.4;12.1;;;;;;;33.0;29.6;101600;;;;
2021/06/11 17:06:48;;;;;;;13.4;12.1;;;;;;;33.7;29.0;101600;;;;
2021/06/11 17:08:48;;;;;;;13.4;12.1;;;;;;;33.5;29.6;101600;;;;
2021/06/11 17:10:47;;;;;;;13.4;12.1;;;;;;;33.7;29.1;101600;;;;
2021/06/11 17:14:47;;;;;;;14.5;13.1;;;;;;;33.2;29.4;101600;;;;
2021/06/11 17:16:48;;;;;;;14.5;13.1;;;;;;;33.0;29.6;101610;;;;
2021/06/11 17:20:48;;;;;;;14.5;13.1;;;;;;;33.2;30.2;101610;;;;
2021/06/11 17:22:48;;;;;;;14.5;13.1;;;;;;;32.7;30.0;101610;;;;
2021/06/11 17:24:47;;;;;;;14.5;13.1;;;;;;;32.6;30.3;101610;;;;
2021/06/11 17:26:48;;;;;;;14.5;13.1;;;;;;;32.7;30.3;101610;;;;
2021/06/11 17:32:48;;;;;;;14.5;13.1;;;;;;;32.6;30.8;101620;;;;
2021/06/11 17:34:48;;;;;;;13.6;12.3;;;;;;;32.7;30.4;101610;;;;
2021/06/11 17:36:47;;;;;;;13.6;12.3;;;;;;;32.4;31.1;101630;;;;
2021/06/11 17:38:48;;;;;;;13.6;12.3;;;;;;;32.0;31.4;101630;;;;
2021/06/11 17:40:48;;;;;;;13.6;12.3;;;;;;;31.7;32.1;101640;;;;
2021/06/11 17:42:48;;;;;;;13.6;12.3;;;;;;;32.0;31.8;101630;;;;
2021/06/11 17:46:48;;;;;;;13.6;12.3;;;;;;;31.6;32.2;101630;;;;
2021/06/11 17:48:48;;;;;;;13.6;12.3;;;;;;;31.2;32.8;101630;;;;
2021/06/11 17:50:48;;;;;;;13.6;12.3;;;;;;;30.8;33.9;101630;;;;
2021/06/11 17:52:48;;;;;;;13.6;12.3;;;;;;;30.6;33.7;101630;;;;
2021/06/11 17:54:48;;;;;;;17.6;15.8;;;;;;;30.3;34.4;101630;;;;